Jackson Evers International Airport
KJAN : now visible

Airfield :











YOU CAN JOIN US ON...

 
LOGIN :

Register | Disclaimer

   EN    FR    IT 

 









Legend :    VFR   Marginal VFR   IFR   Intensive IFR   Very Intensive IFR
Visi :
Ceiling :
>= 8 km
>= 3000ft
5 to 8 km
1000 to 3000 ft
1500m to 5 km
500 to 1000 ft
800 to 1500m
200 to 500 ft
< 800m
< 200 ft
Symbols :   Thunderstorms  Fog  Heavy snow  Heavy precipitations  Wind > 20 kt






- Airport Elevation : 346 ft
- IATA code : JAN


KJAN - Jackson Evers International

CURRENT METAR :
  • 181954Z 12009KT 6SM -RA BR FEW090 OVC110 22/19 A3002 RMK AO2 SLP161 P0007 T02220194

EXPIRED METARs :
  • 181922Z 13007KT 6SM -RA SCT018 BKN075 OVC110 22/19 A3003 RMK AO2 P0003 T02220189
  • 181854Z 14007KT 9SM -RA BKN016 OVC049 22/19 A3004 RMK AO2 RAB35 SLP169 P0000 T02220189
  • 181754Z 13010KT 10SM OVC016 23/18 A3004 RMK AO2 RAE04 SLP168 P0000 60000 T02280178 10233 20217 58001

TAF KJAN
Valid from the 18 at 20:00 until the 19 at 18:00 UTC


181954Z 1820/1918 12010KT 6SM -RA SCT090 OVC110
FM190000 13015KT P6SM OVC015
FM190800 13013KT P6SM SCT030 OVC050
FM191400 14018G25KT P6SM OVC015
KZME FIR / North America



MET'MAP, your aeronautical weather chart ! - Copyright ORBIFLY December 2007 - Disclaimer

ORBIFLY MET'MAP TEAM :

Programming & Development : Alexandra Zaïnal
Concept & original design : Baudouin d'Aumeries
Assistance for programming : Marc-Olivier Méhu
Technical & hardware support : Manuel Goepfert

Contact : metmap@orbifly.com




SOURCES & CREDITS :

   NOAA       Earth
Advisory